Time;durP1;ratioP1;P1;durP2;ratioP2;P2;SDS_P1;SDS_P2;PMS_P1;PMS_P2;Temp;Humidity;BMP_temperature;BMP_pressure;BME280_temperature;BME280_humidity;BME280_pressure;Samples;Min_cycle;Max_cycle;Signal;HPM_P1;HPM_P2
2022/03/25 00:01:14;;;;;;;58.20;23.67;;;5.10;99.90;;;;;;5092383;28;20185;-82
2022/03/25 00:03:40;;;;;;;52.20;24.00;;;;;;;;;;5075655;28;20196;-82
2022/03/25 00:06:06;;;;;;;50.30;22.30;;;5.00;99.90;;;;;;5093621;28;20186;-82
2022/03/25 00:08:33;;;;;;;46.53;21.23;;;5.10;99.90;;;;;;5092435;28;20174;-81
2022/03/25 00:10:58;;;;;;;44.93;22.43;;;5.10;99.90;;;;;;5091723;28;20208;-82
2022/03/25 00:13:24;;;;;;;43.90;21.47;;;5.10;99.90;;;;;;5093342;28;20642;-82
2022/03/25 00:15:50;;;;;;;42.90;21.13;;;5.00;99.90;;;;;;5091690;28;20217;-82
2022/03/25 00:18:16;;;;;;;48.80;21.17;;;5.20;99.90;;;;;;5092081;28;20186;-82
2022/03/25 00:20:42;;;;;;;45.57;21.93;;;4.90;99.90;;;;;;5093525;28;20267;-82
2022/03/25 00:23:07;;;;;;;47.20;21.60;;;4.90;99.90;;;;;;5075035;28;20190;-82
2022/03/25 00:25:34;;;;;;;44.20;20.47;;;5.20;99.90;;;;;;5093767;28;20197;-83
2022/03/25 00:28:00;;;;;;;42.90;21.07;;;;;;;;;;5093437;28;20282;-82
2022/03/25 00:30:27;;;;;;;44.77;20.90;;;;;;;;;;5091884;28;20182;-81
2022/03/25 00:32:54;;;;;;;48.40;20.37;;;;;;;;;;5091954;28;20267;-82
2022/03/25 00:35:20;;;;;;;47.17;22.00;;;4.80;99.90;;;;;;5082190;28;20365;-82
2022/03/25 00:37:47;;;;;;;48.03;22.73;;;4.80;99.90;;;;;;5054971;28;20190;-82
2022/03/25 00:40:13;;;;;;;47.87;22.43;;;4.80;99.90;;;;;;5072918;28;20177;-82
2022/03/25 00:42:39;;;;;;;41.77;21.30;;;5.40;99.90;;;;;;5072835;28;20175;-82
2022/03/25 00:45:05;;;;;;;48.20;22.47;;;4.70;99.90;;;;;;5072753;28;20190;-82
2022/03/25 00:47:31;;;;;;;52.67;23.40;;;4.70;99.90;;;;;;5072841;28;20190;-82
2022/03/25 00:49:57;;;;;;;48.43;23.33;;;4.60;99.90;;;;;;5072634;28;20201;-82
2022/03/25 00:52:23;;;;;;;51.03;20.57;;;4.60;99.90;;;;;;5054837;28;20635;-82
2022/03/25 00:54:50;;;;;;;46.53;21.80;;;4.60;99.90;;;;;;5072970;28;20217;-82
2022/03/25 00:57:16;;;;;;;42.90;21.63;;;4.60;99.90;;;;;;5073029;28;20177;-82
2022/03/25 00:59:42;;;;;;;47.10;21.70;;;4.60;99.90;;;;;;5072843;28;20250;-82
2022/03/25 01:02:08;;;;;;;49.20;22.00;;;4.50;99.90;;;;;;5054502;28;20278;-82
2022/03/25 01:04:34;;;;;;;45.57;21.33;;;;;;;;;;5055261;28;20205;-82
2022/03/25 01:07:00;;;;;;;44.03;21.60;;;4.50;99.90;;;;;;5072262;28;20221;-81
2022/03/25 01:09:26;;;;;;;43.03;20.43;;;4.50;99.90;;;;;;5072826;28;20676;-81
2022/03/25 01:11:53;;;;;;;40.70;20.77;;;4.50;99.90;;;;;;5072481;28;20171;-83
2022/03/25 01:14:18;;;;;;;45.20;21.17;;;5.70;99.90;;;;;;5072611;28;20177;-81
2022/03/25 01:16:44;;;;;;;48.40;21.03;;;4.40;99.90;;;;;;5072685;28;20173;-81
2022/03/25 01:19:11;;;;;;;37.37;20.27;;;4.40;99.90;;;;;;5072271;28;20178;-81
2022/03/25 01:21:36;;;;;;;54.10;21.53;;;4.40;99.90;;;;;;5073875;28;20636;-81
2022/03/25 01:24:02;;;;;;;42.93;21.70;;;;;;;;;;5076048;28;20186;-81
2022/03/25 01:26:28;;;;;;;44.03;21.23;;;4.40;99.90;;;;;;5076386;28;20176;-81
2022/03/25 01:28:54;;;;;;;49.83;21.70;;;;;;;;;;5075931;28;20591;-84
2022/03/25 01:31:20;;;;;;;45.57;20.33;;;4.40;99.90;;;;;;5076305;28;20173;-81
2022/03/25 01:33:46;;;;;;;39.63;20.93;;;4.50;99.90;;;;;;5058451;28;20630;-81
2022/03/25 01:36:12;;;;;;;41.30;20.00;;;4.60;99.90;;;;;;5074574;28;20234;-81
2022/03/25 01:38:39;;;;;;;47.60;20.90;;;4.50;99.90;;;;;;5096396;28;20192;-81
2022/03/25 01:41:05;;;;;;;41.90;20.33;;;4.40;99.90;;;;;;5095865;28;20178;-81
2022/03/25 01:43:31;;;;;;;53.53;20.67;;;4.30;99.90;;;;;;5096039;28;20728;-81
2022/03/25 01:45:57;;;;;;;45.77;20.43;;;4.30;99.90;;;;;;5095653;28;20241;-84
2022/03/25 01:48:23;;;;;;;40.50;21.63;;;4.30;99.90;;;;;;5096530;28;20180;-81
2022/03/25 01:50:49;;;;;;;44.80;21.07;;;4.30;99.90;;;;;;5096184;28;20176;-80
2022/03/25 01:53:16;;;;;;;46.60;20.90;;;4.30;99.90;;;;;;5095769;28;20185;-81
2022/03/25 01:55:52;;;;;;;41.77;19.27;;;4.30;99.90;;;;;;5096177;28;20204;-81
2022/03/25 01:58:18;;;;;;;43.20;20.80;;;;;;;;;;5096189;28;20245;-81
2022/03/25 02:00:44;;;;;;;42.33;18.90;;;;;;;;;;5096184;28;20652;-81
2022/03/25 02:03:10;;;;;;;41.07;20.37;;;4.20;99.90;;;;;;5095900;28;20638;-81
2022/03/25 02:05:36;;;;;;;39.30;20.50;;;;;;;;;;5096122;28;20192;-81
2022/03/25 02:08:03;;;;;;;42.30;21.57;;;4.20;99.90;;;;;;5095786;28;20287;-81
2022/03/25 02:10:29;;;;;;;45.60;21.17;;;4.10;99.90;;;;;;5094430;28;20196;-81
2022/03/25 02:12:55;;;;;;;43.67;20.23;;;4.10;99.90;;;;;;5094625;28;20179;-81
2022/03/25 02:15:42;;;;;;;39.50;20.13;;;4.10;99.90;;;;;;5095276;28;20223;-81
2022/03/25 02:18:10;;;;;;;37.43;19.57;;;4.10;99.90;;;;;;5095676;28;20176;-81
2022/03/25 02:20:37;;;;;;;38.30;19.27;;;;;;;;;;5095900;28;20245;-81
2022/03/25 02:23:04;;;;;;;41.33;19.07;;;6.30;99.90;;;;;;5094583;28;20268;-81
2022/03/25 02:25:31;;;;;;;39.53;20.03;;;4.10;99.90;;;;;;5095766;28;20244;-81
2022/03/25 02:27:58;;;;;;;40.40;19.80;;;4.10;99.90;;;;;;5094393;28;20213;-81
2022/03/25 02:30:28;;;;;;;37.80;20.13;;;4.10;99.90;;;;;;5094332;28;20182;-81
2022/03/25 02:32:57;;;;;;;38.33;18.77;;;4.10;99.90;;;;;;5095672;28;20176;-81
2022/03/25 02:35:39;;;;;;;45.43;19.23;;;4.10;99.90;;;;;;5083983;28;20250;-81
2022/03/25 02:38:05;;;;;;;39.73;19.80;;;4.10;99.90;;;;;;5086981;28;20170;-82
2022/03/25 02:40:31;;;;;;;39.00;18.00;;;4.10;99.90;;;;;;5089802;28;20177;-81
2022/03/25 02:42:57;;;;;;;44.27;20.43;;;4.00;99.90;;;;;;5089325;28;20185;-81
2022/03/25 02:45:22;;;;;;;37.00;17.77;;;4.40;99.90;;;;;;5073713;28;20172;-81
2022/03/25 02:47:48;;;;;;;35.07;18.37;;;4.00;99.90;;;;;;5099971;28;20211;-80
2022/03/25 02:50:14;;;;;;;35.60;17.97;;;4.40;99.90;;;;;;5099793;28;20158;-82
2022/03/25 02:52:41;;;;;;;38.70;18.87;;;;;;;;;;5099856;28;20203;-81
2022/03/25 02:55:08;;;;;;;34.77;17.57;;;3.80;99.90;;;;;;5073842;28;20216;-79
2022/03/25 02:57:37;;;;;;;38.10;18.70;;;3.70;99.90;;;;;;5085294;28;20182;-81
2022/03/25 03:00:08;;;;;;;40.80;19.27;;;3.70;99.90;;;;;;5092251;28;20241;-80
2022/03/25 03:02:34;;;;;;;45.90;20.00;;;3.60;99.90;;;;;;5099105;28;20159;-80
2022/03/25 03:05:00;;;;;;;42.53;19.73;;;4.50;99.90;;;;;;5099389;28;20188;-81
2022/03/25 03:07:25;;;;;;;40.03;18.23;;;3.50;99.90;;;;;;5087173;28;20182;-81
2022/03/25 03:09:51;;;;;;;43.43;19.40;;;3.50;99.90;;;;;;5041678;28;20175;-81
2022/03/25 03:12:17;;;;;;;45.73;19.37;;;3.50;99.90;;;;;;5075135;28;20191;-81
2022/03/25 03:14:43;;;;;;;40.43;19.70;;;;;;;;;;5058171;28;20223;-81
2022/03/25 03:17:10;;;;;;;38.97;19.83;;;3.40;99.90;;;;;;5074914;28;20688;-84
2022/03/25 03:19:36;;;;;;;44.10;19.37;;;4.40;99.90;;;;;;5075319;28;20377;-79
2022/03/25 03:22:02;;;;;;;39.83;19.97;;;3.40;99.90;;;;;;5075244;28;20221;-81
2022/03/25 03:24:27;;;;;;;41.37;19.37;;;3.40;99.90;;;;;;5074841;28;20639;-80
2022/03/25 03:26:53;;;;;;;44.00;20.37;;;;;;;;;;5075474;28;20691;-81
2022/03/25 03:29:20;;;;;;;37.60;20.33;;;;;;;;;;5056760;28;20179;-81
2022/03/25 03:31:46;;;;;;;46.27;20.50;;;;;;;;;;5085725;28;20542;-81
2022/03/25 03:34:12;;;;;;;47.47;20.80;;;3.30;99.90;;;;;;5093919;28;20189;-82
2022/03/25 03:36:38;;;;;;;45.67;21.43;;;3.90;99.90;;;;;;5095086;28;20176;-81
2022/03/25 03:39:05;;;;;;;60.10;23.40;;;3.30;99.90;;;;;;5094342;28;20579;-81
2022/03/25 03:41:30;;;;;;;51.33;22.07;;;3.20;99.90;;;;;;5093728;28;20172;-81
2022/03/25 03:43:56;;;;;;;49.43;22.00;;;4.70;99.90;;;;;;5075444;28;20512;-80
2022/03/25 03:46:22;;;;;;;47.20;20.60;;;3.20;99.90;;;;;;5093564;28;20191;-81
2022/03/25 03:48:49;;;;;;;53.07;22.73;;;4.20;99.90;;;;;;5075722;28;20529;-80
2022/03/25 03:51:15;;;;;;;48.50;21.93;;;3.40;99.90;;;;;;5093548;28;20188;-81
2022/03/25 03:53:41;;;;;;;52.33;21.93;;;;;;;;;;5093677;28;20546;-80
2022/03/25 03:56:07;;;;;;;49.70;20.83;;;;;;;;;;5093727;28;20347;-80
2022/03/25 03:58:33;;;;;;;50.47;21.33;;;3.00;99.90;;;;;;5077120;28;20195;-80
2022/03/25 04:00:59;;;;;;;41.23;20.27;;;2.90;99.90;;;;;;5073266;28;20551;-81
2022/03/25 04:03:25;;;;;;;46.07;19.90;;;2.90;99.90;;;;;;5054841;28;20185;-81
2022/03/25 04:05:50;;;;;;;42.60;19.70;;;2.90;99.90;;;;;;5074584;28;20203;-81
2022/03/25 04:08:16;;;;;;;38.40;18.77;;;2.80;99.90;;;;;;5084391;28;20183;-81
2022/03/25 04:10:42;;;;;;;39.30;18.30;;;2.80;99.90;;;;;;5082385;28;20190;-81
2022/03/25 04:13:08;;;;;;;38.67;19.03;;;;;;;;;;5084147;28;20923;-81
2022/03/25 04:15:34;;;;;;;38.77;20.23;;;3.00;99.90;;;;;;5062249;28;20628;-82
2022/03/25 04:18:00;;;;;;;38.00;19.17;;;2.90;99.90;;;;;;5063951;28;20179;-80
2022/03/25 04:20:26;;;;;;;42.70;20.00;;;3.00;99.90;;;;;;5067207;28;20666;-81
2022/03/25 04:22:52;;;;;;;43.87;19.77;;;4.20;99.90;;;;;;5080624;28;20175;-81
2022/03/25 04:25:18;;;;;;;44.80;18.73;;;;;;;;;;5065306;28;20196;-81
2022/03/25 04:27:53;;;;;;;45.07;19.53;;;3.00;99.90;;;;;;5080694;28;20605;-81
2022/03/25 04:30:20;;;;;;;46.93;20.60;;;3.20;99.90;;;;;;5064389;28;20170;-83
2022/03/25 04:32:46;;;;;;;46.00;20.23;;;3.30;99.90;;;;;;5082325;28;20171;-82
2022/03/25 04:35:13;;;;;;;45.23;20.43;;;;;;;;;;5082913;28;20226;-81
2022/03/25 04:37:39;;;;;;;43.60;20.33;;;3.10;99.90;;;;;;5080668;28;20179;-82
2022/03/25 04:40:05;;;;;;;47.23;20.03;;;3.80;99.90;;;;;;5063402;28;20274;-82
2022/03/25 04:42:31;;;;;;;50.37;21.80;;;3.10;99.90;;;;;;5064351;28;20588;-82
2022/03/25 04:44:56;;;;;;;42.70;20.27;;;3.80;99.90;;;;;;5083163;28;20190;-82
2022/03/25 04:47:22;;;;;;;47.13;20.37;;;3.80;99.90;;;;;;5081727;28;20653;-81
2022/03/25 04:49:48;;;;;;;43.77;21.53;;;3.40;99.90;;;;;;5082230;28;20203;-81
2022/03/25 04:52:15;;;;;;;43.73;19.90;;;4.10;99.90;;;;;;5082912;28;20179;-80
2022/03/25 04:54:41;;;;;;;43.27;20.23;;;;;;;;;;5063169;28;20211;-82
2022/03/25 04:57:06;;;;;;;40.47;20.10;;;3.10;99.90;;;;;;5059086;28;20551;-82
2022/03/25 04:59:32;;;;;;;43.50;21.17;;;;;;;;;;5058487;28;20191;-82
2022/03/25 05:01:58;;;;;;;46.83;22.13;;;3.10;99.90;;;;;;5082160;28;20183;-82
2022/03/25 05:04:24;;;;;;;47.07;21.63;;;3.20;99.90;;;;;;5085294;28;20177;-82
2022/03/25 05:06:49;;;;;;;55.20;23.17;;;3.20;99.90;;;;;;5090658;28;20183;-82
2022/03/25 05:09:15;;;;;;;53.90;23.03;;;3.80;99.90;;;;;;5075197;28;20269;-82
2022/03/25 05:11:41;;;;;;;48.97;24.83;;;3.20;99.90;;;;;;5093549;28;21016;-81
2022/03/25 05:14:06;;;;;;;53.77;24.73;;;3.30;99.90;;;;;;5078783;28;20535;-82
2022/03/25 05:16:32;;;;;;;49.60;23.73;;;3.30;99.90;;;;;;5081530;28;20198;-82
2022/03/25 05:18:58;;;;;;;51.90;23.93;;;3.40;99.90;;;;;;5086921;28;20671;-81
2022/03/25 05:21:23;;;;;;;52.13;24.53;;;3.70;99.90;;;;;;5083828;28;20186;-84
2022/03/25 05:23:49;;;;;;;45.20;21.83;;;4.10;99.90;;;;;;5096324;28;20582;-82
2022/03/25 05:26:16;;;;;;;43.27;23.03;;;;;;;;;;5096921;28;20190;-81
2022/03/25 05:28:42;;;;;;;38.53;21.43;;;;;;;;;;5088669;28;20270;-81
2022/03/25 05:31:08;;;;;;;44.03;20.47;;;3.70;99.90;;;;;;5076022;28;20209;-82
2022/03/25 05:33:34;;;;;;;46.50;21.27;;;3.80;99.90;;;;;;5078645;28;20208;-82
2022/03/25 05:35:59;;;;;;;45.27;22.40;;;4.60;99.90;;;;;;5075505;28;20317;-82
2022/03/25 05:38:25;;;;;;;39.20;20.43;;;3.90;99.90;;;;;;5092915;28;20198;-82
2022/03/25 05:40:51;;;;;;;48.23;21.53;;;4.00;99.90;;;;;;5096060;28;20707;-81
2022/03/25 05:43:17;;;;;;;43.63;21.80;;;;;;;;;;5095877;28;20201;-81
2022/03/25 05:45:42;;;;;;;38.23;20.17;;;4.10;99.90;;;;;;5083706;28;20201;-80
2022/03/25 05:48:08;;;;;;;36.40;20.83;;;4.20;99.90;;;;;;5084111;28;20185;-81
2022/03/25 05:50:34;;;;;;;37.30;19.93;;;4.30;99.90;;;;;;5058705;28;20199;-82
2022/03/25 05:53:00;;;;;;;41.50;21.23;;;4.40;99.90;;;;;;5062140;28;20190;-82
2022/03/25 05:55:25;;;;;;;40.97;19.77;;;4.50;99.90;;;;;;5087366;28;20225;-84
2022/03/25 05:57:51;;;;;;;41.67;20.33;;;4.60;99.90;;;;;;5075072;28;20652;-81
2022/03/25 06:00:17;;;;;;;40.53;20.17;;;;;;;;;;5056847;28;20549;-81
2022/03/25 06:02:44;;;;;;;38.07;20.50;;;4.90;99.90;;;;;;5077651;28;20179;-81
2022/03/25 06:05:11;;;;;;;34.73;18.47;;;4.90;99.90;;;;;;5074652;28;20198;-81
2022/03/25 06:07:38;;;;;;;44.30;19.73;;;5.00;99.90;;;;;;5071763;28;20260;-81
2022/03/25 06:10:07;;;;;;;33.73;17.67;;;5.00;99.90;;;;;;5076287;28;20186;-81
2022/03/25 06:12:33;;;;;;;40.93;19.57;;;5.00;99.90;;;;;;5081155;28;20181;-81
2022/03/25 06:14:59;;;;;;;35.67;20.03;;;5.10;99.90;;;;;;5042765;28;20253;-81
2022/03/25 06:17:26;;;;;;;38.67;19.13;;;5.20;99.90;;;;;;5048461;28;20225;-81
2022/03/25 06:19:52;;;;;;;38.63;19.77;;;5.20;99.90;;;;;;5074353;28;20198;-83
2022/03/25 06:22:18;;;;;;;30.60;17.90;;;5.20;99.90;;;;;;5080280;28;20225;-81
2022/03/25 06:24:44;;;;;;;38.70;18.83;;;5.30;99.90;;;;;;5069658;28;20717;-83
2022/03/25 06:27:10;;;;;;;32.90;17.67;;;;;;;;;;5049156;28;20547;-81
2022/03/25 06:29:37;;;;;;;32.10;19.53;;;5.40;99.90;;;;;;5070331;28;20194;-82
2022/03/25 06:32:10;;;;;;;34.27;18.03;;;5.50;99.90;;;;;;5052739;28;20175;-81
2022/03/25 06:34:36;;;;;;;35.57;19.90;;;6.00;99.90;;;;;;5071066;28;20225;-82
2022/03/25 06:37:02;;;;;;;31.20;17.80;;;5.80;99.90;;;;;;5045606;28;20203;-83
2022/03/25 06:39:29;;;;;;;36.73;19.27;;;5.80;99.90;;;;;;5069222;28;20270;-82
2022/03/25 06:41:55;;;;;;;37.03;17.43;;;6.00;99.90;;;;;;5067294;28;20294;-83
2022/03/25 06:44:20;;;;;;;31.60;17.03;;;6.10;99.90;;;;;;5054274;28;20613;-83
2022/03/25 06:46:46;;;;;;;31.67;16.53;;;6.30;99.90;;;;;;5056570;28;20625;-84
2022/03/25 06:49:12;;;;;;;30.67;15.40;;;6.40;99.90;;;;;;5032144;28;20191;-84
2022/03/25 06:51:38;;;;;;;42.37;18.37;;;6.50;99.90;;;;;;5056134;28;20662;-84
2022/03/25 06:54:04;;;;;;;31.23;16.60;;;6.60;99.90;;;;;;5064008;28;20559;-85
2022/03/25 06:56:33;;;;;;;38.93;15.87;;;6.70;99.90;;;;;;5047212;28;20211;-85
2022/03/25 06:58:59;;;;;;;30.63;16.33;;;6.80;99.90;;;;;;5047672;28;20267;-83
2022/03/25 07:01:25;;;;;;;35.30;16.13;;;6.90;99.90;;;;;;5043419;28;20191;-86
2022/03/25 07:03:51;;;;;;;33.87;17.30;;;7.20;99.90;;;;;;5067828;28;20267;-83
2022/03/25 07:06:22;;;;;;;31.40;16.07;;;7.10;99.90;;;;;;5049718;28;20182;-83
2022/03/25 07:08:54;;;;;;;31.63;15.93;;;7.20;99.90;;;;;;5069589;28;20213;-84
2022/03/25 07:11:20;;;;;;;29.50;14.77;;;7.30;99.90;;;;;;5061274;28;20188;-86
2022/03/25 07:13:46;;;;;;;32.20;16.13;;;7.40;99.90;;;;;;5076592;28;20280;-84
2022/03/25 07:16:12;;;;;;;28.87;15.80;;;7.50;99.90;;;;;;5068161;28;20342;-87
2022/03/25 07:18:37;;;;;;;31.53;15.70;;;7.60;99.90;;;;;;5043157;28;20186;-85
2022/03/25 07:21:04;;;;;;;29.83;16.57;;;7.60;99.90;;;;;;5082076;28;20208;-85
2022/03/25 07:23:30;;;;;;;36.20;15.60;;;7.70;99.90;;;;;;5052040;28;20249;-84
2022/03/25 07:25:56;;;;;;;29.10;15.20;;;7.80;99.90;;;;;;5074468;28;20209;-85
2022/03/25 07:28:22;;;;;;;30.50;16.97;;;7.90;99.90;;;;;;5072817;28;20187;-84
2022/03/25 07:30:48;;;;;;;32.20;16.77;;;7.90;99.90;;;;;;5054635;28;20531;-83
2022/03/25 07:33:14;;;;;;;32.13;16.40;;;;;;;;;;5101367;28;20177;-83
2022/03/25 07:35:40;;;;;;;28.97;16.07;;;7.90;99.90;;;;;;5110557;27;20259;-82
2022/03/25 07:38:07;;;;;;;27.57;16.00;;;7.90;99.90;;;;;;5091428;28;20261;-86
2022/03/25 07:40:34;;;;;;;31.40;15.43;;;7.90;99.90;;;;;;5092754;28;20227;-83
2022/03/25 07:43:01;;;;;;;27.90;16.17;;;8.00;99.90;;;;;;5096410;28;20175;-84
2022/03/25 07:45:27;;;;;;;31.33;16.10;;;8.10;99.90;;;;;;5107251;28;20212;-85
2022/03/25 07:47:53;;;;;;;22.97;14.43;;;8.20;99.90;;;;;;5093165;28;20205;-85
2022/03/25 07:50:21;;;;;;;28.80;15.10;;;8.30;99.90;;;;;;5094318;27;20195;-84
2022/03/25 07:52:47;;;;;;;39.77;17.13;;;8.30;99.90;;;;;;5097175;27;20254;-81
2022/03/25 07:55:16;;;;;;;29.63;15.67;;;8.60;99.90;;;;;;5096709;27;20249;-85
2022/03/25 07:57:43;;;;;;;36.33;16.23;;;8.50;99.90;;;;;;5104513;27;20227;-86
2022/03/25 08:00:13;;;;;;;27.50;15.03;;;8.60;99.90;;;;;;5075028;28;20682;-83
2022/03/25 08:02:45;;;;;;;28.43;15.93;;;8.60;99.90;;;;;;5085119;28;20273;-82
2022/03/25 08:05:11;;;;;;;31.63;16.67;;;8.60;99.90;;;;;;5097460;28;20185;-82
2022/03/25 08:07:49;;;;;;;30.23;15.83;;;8.60;99.90;;;;;;5092759;28;20202;-84
2022/03/25 08:10:20;;;;;;;31.87;16.13;;;8.60;99.90;;;;;;5101053;28;20233;-81
2022/03/25 08:12:46;;;;;;;29.70;15.47;;;8.70;99.90;;;;;;5102360;28;20216;-83
2022/03/25 08:15:13;;;;;;;26.30;15.90;;;;;;;;;;5102381;28;20213;-83
2022/03/25 08:17:45;;;;;;;32.13;16.00;;;9.00;99.90;;;;;;5104672;28;20324;-83
2022/03/25 08:20:12;;;;;;;32.53;16.07;;;;;;;;;;5104339;28;20507;-83
2022/03/25 08:22:37;;;;;;;30.37;17.10;;;9.30;99.90;;;;;;5115834;28;20177;-81
2022/03/25 08:27:50;;;;;;;31.57;16.53;;;9.60;99.80;;;;;;5107134;28;20189;-83
2022/03/25 08:30:16;;;;;;;35.70;16.60;;;9.50;97.50;;;;;;5086258;28;20181;-82
2022/03/25 08:32:42;;;;;;;31.20;16.03;;;9.50;97.70;;;;;;5122201;28;20220;-83
2022/03/25 08:35:08;;;;;;;30.00;16.47;;;9.60;97.20;;;;;;5104129;28;20242;-82
2022/03/25 08:37:34;;;;;;;27.63;15.33;;;9.70;97.40;;;;;;5101228;28;20178;-81
2022/03/25 08:40:00;;;;;;;32.10;16.33;;;9.90;97.30;;;;;;5080611;28;20183;-82
2022/03/25 08:42:25;;;;;;;29.40;15.97;;;10.00;95.80;;;;;;5096686;28;20170;-85
2022/03/25 08:44:51;;;;;;;31.87;16.30;;;10.10;94.80;;;;;;5115815;28;20186;-83
2022/03/25 08:47:17;;;;;;;28.43;15.43;;;10.00;94.60;;;;;;5097791;28;20170;-83
2022/03/25 08:49:43;;;;;;;36.27;16.70;;;10.10;95.80;;;;;;5113517;28;20178;-87
2022/03/25 08:52:09;;;;;;;31.70;17.40;;;10.30;94.50;;;;;;5082655;28;20185;-84
2022/03/25 08:54:35;;;;;;;27.37;14.97;;;10.30;94.30;;;;;;5117055;28;20181;-83
2022/03/25 08:57:02;;;;;;;32.00;15.17;;;10.50;93.60;;;;;;5094346;28;20209;-81
2022/03/25 08:59:28;;;;;;;29.70;16.90;;;10.60;94.90;;;;;;5085747;28;20174;-80
2022/03/25 09:01:56;;;;;;;35.00;16.93;;;10.80;92.80;;;;;;5096930;28;20262;-81
2022/03/25 09:04:21;;;;;;;28.13;16.43;;;10.70;92.80;;;;;;5057656;28;20190;-80
2022/03/25 09:06:47;;;;;;;32.20;15.77;;;10.80;92.50;;;;;;5074038;28;20258;-81
2022/03/25 09:09:13;;;;;;;31.20;15.87;;;10.90;92.10;;;;;;5056406;28;20210;-81
2022/03/25 09:11:40;;;;;;;29.17;14.40;;;11.00;92.80;;;;;;5055928;28;20631;-81
2022/03/25 09:14:06;;;;;;;33.57;15.97;;;11.10;91.00;;;;;;5073250;28;20724;-81
2022/03/25 09:16:31;;;;;;;25.67;15.13;;;11.10;91.70;;;;;;5073216;28;20667;-81
2022/03/25 09:18:57;;;;;;;28.57;16.13;;;11.20;91.20;;;;;;5056121;28;20525;-82
2022/03/25 09:21:23;;;;;;;30.23;15.63;;;11.30;91.50;;;;;;5056529;28;20182;-81
2022/03/25 09:23:49;;;;;;;29.77;15.23;;;11.30;91.00;;;;;;5040683;28;20198;-81
2022/03/25 09:26:16;;;;;;;34.50;15.70;;;11.30;91.20;;;;;;5075813;28;20270;-82
2022/03/25 09:28:41;;;;;;;41.10;16.93;;;11.40;91.40;;;;;;5040287;28;20276;-81
2022/03/25 09:31:07;;;;;;;35.20;17.83;;;11.50;91.20;;;;;;5040520;28;20620;-82
2022/03/25 09:33:33;;;;;;;29.65;16.75;;;11.60;90.50;;;;;;5022494;28;20215;-82
2022/03/25 09:35:59;;;;;;;24.02;12.70;;;11.60;90.00;;;;;;5073318;28;20231;-83
2022/03/25 09:38:26;;;;;;;21.42;12.90;;;11.70;89.30;;;;;;5074253;28;20175;-82
2022/03/25 09:40:53;;;;;;;27.83;12.82;;;11.80;90.00;;;;;;5056222;28;20191;-83
2022/03/25 09:43:19;;;;;;;20.13;11.38;;;12.10;87.60;;;;;;5057297;28;20175;-83
2022/03/25 09:45:45;;;;;;;30.17;15.18;;;12.00;86.50;;;;;;5058063;28;20536;-83
2022/03/25 09:48:11;;;;;;;25.10;12.98;;;12.10;86.20;;;;;;5057871;28;20278;-82
2022/03/25 09:50:40;;;;;;;20.23;12.52;;;12.30;87.10;;;;;;5077037;28;20195;-83
2022/03/25 09:53:07;;;;;;;20.40;11.70;;;12.40;84.70;;;;;;5092746;28;20186;-82
2022/03/25 09:55:40;;;;;;;21.80;9.75;;;12.50;84.00;;;;;;5074493;28;20221;-83
2022/03/25 09:58:06;;;;;;;18.85;10.18;;;12.40;82.40;;;;;;5090227;28;20175;-82
2022/03/25 10:00:32;;;;;;;23.05;11.00;;;12.40;83.60;;;;;;5081284;28;20206;-83
2022/03/25 10:02:58;;;;;;;18.95;9.95;;;12.50;83.90;;;;;;5077842;28;20519;-83
2022/03/25 10:05:23;;;;;;;21.65;12.07;;;12.50;84.70;;;;;;5077785;28;20604;-83
2022/03/25 10:07:51;;;;;;;20.42;11.60;;;12.60;82.10;;;;;;5062246;28;20179;-82
2022/03/25 10:10:23;;;;;;;25.63;12.88;;;12.80;82.50;;;;;;5056586;28;20559;-83
2022/03/25 10:12:57;;;;;;;23.77;12.80;;;12.90;81.10;;;;;;5058266;28;20171;-83
2022/03/25 10:15:26;;;;;;;17.08;9.65;;;12.90;82.40;;;;;;5075238;28;20217;-82
2022/03/25 10:17:56;;;;;;;14.85;8.18;;;13.20;81.60;;;;;;5074932;28;20171;-82
2022/03/25 10:20:44;;;;;;;22.10;7.38;;;13.40;78.90;;;;;;5074863;28;20182;-83
2022/03/25 10:23:11;;;;;;;14.57;9.55;;;13.60;78.20;;;;;;5064019;28;20195;-83
2022/03/25 10:25:53;;;;;;;15.82;9.00;;;13.60;74.70;;;;;;5056770;28;20175;-84
2022/03/25 10:28:28;;;;;;;20.10;9.10;;;13.60;75.40;;;;;;5074202;28;20171;-84
2022/03/25 10:30:59;;;;;;;18.38;9.25;;;13.60;75.50;;;;;;5086438;28;20253;-84
2022/03/25 10:33:42;;;;;;;23.85;9.98;;;13.90;75.00;;;;;;5076658;28;20178;-84
2022/03/25 10:36:12;;;;;;;18.58;9.43;;;13.90;73.60;;;;;;5108340;28;20320;-85
2022/03/25 10:38:50;;;;;;;23.92;9.88;;;14.00;72.30;;;;;;5113982;28;20178;-85
2022/03/25 10:41:24;;;;;;;18.90;10.57;;;14.00;71.70;;;;;;5114680;28;20590;-84
2022/03/25 10:44:03;;;;;;;16.38;8.82;;;13.70;72.50;;;;;;5100383;28;20193;-85
2022/03/25 10:46:49;;;;;;;17.65;8.40;;;13.90;69.50;;;;;;5105281;28;20208;-84
2022/03/25 10:49:17;;;;;;;17.95;10.20;;;14.00;69.10;;;;;;5101704;28;20166;-85
2022/03/25 10:52:04;;;;;;;15.15;8.45;;;14.10;67.40;;;;;;5103138;28;20174;-86
2022/03/25 10:54:30;;;;;;;16.25;9.18;;;14.00;68.00;;;;;;5105188;28;20203;-85
2022/03/25 10:56:59;;;;;;;15.18;8.52;;;14.10;67.20;;;;;;5102340;28;20210;-83
2022/03/25 10:59:34;;;;;;;22.15;8.75;;;14.30;65.30;;;;;;5102266;28;20315;-83
2022/03/25 11:02:00;;;;;;;17.58;8.25;;;14.30;62.20;;;;;;5094335;28;20170;-83
2022/03/25 11:04:27;;;;;;;20.65;10.57;;;14.30;63.80;;;;;;5094131;28;20183;-83
2022/03/25 11:06:53;;;;;;;21.33;9.00;;;14.20;60.60;;;;;;5106491;28;20189;-82
2022/03/25 11:09:20;;;;;;;20.92;10.05;;;14.20;60.80;;;;;;5113847;28;20174;-82
2022/03/25 11:11:48;;;;;;;22.13;8.85;;;14.10;59.10;;;;;;5110989;28;20181;-82
2022/03/25 11:14:15;;;;;;;16.67;7.45;;;14.20;60.00;;;;;;5093785;28;20254;-83
2022/03/25 11:17:02;;;;;;;20.63;7.03;;;14.10;57.50;;;;;;5093985;28;20218;-83
2022/03/25 11:19:29;;;;;;;16.92;7.28;;;14.20;57.40;;;;;;5095837;28;20167;-82
2022/03/25 11:21:57;;;;;;;13.55;7.22;;;14.50;56.90;;;;;;5108864;28;20646;-82
2022/03/25 11:25:04;;;;;;;12.75;7.10;;;14.60;58.20;;;;;;5099585;28;20182;-84
2022/03/25 11:27:36;;;;;;;9.75;6.70;;;14.50;55.80;;;;;;5033805;28;20184;-84
2022/03/25 11:30:13;;;;;;;13.32;7.53;;;14.70;54.80;;;;;;5087528;28;20191;-83
2022/03/25 11:33:04;;;;;;;14.32;6.60;;;14.90;54.60;;;;;;5104592;28;20173;-83
2022/03/25 11:35:32;;;;;;;10.60;5.80;;;14.90;53.40;;;;;;5092494;28;20253;-84
2022/03/25 11:38:10;;;;;;;23.17;6.32;;;15.00;53.40;;;;;;5084059;28;20174;-84
2022/03/25 11:40:40;;;;;;;13.70;6.30;;;15.10;51.10;;;;;;5087043;28;20186;-83
2022/03/25 11:43:17;;;;;;;9.23;4.90;;;15.10;51.00;;;;;;5064523;28;20171;-82
2022/03/25 11:45:44;;;;;;;15.13;5.40;;;15.30;50.00;;;;;;5075886;28;20191;-83
2022/03/25 11:48:11;;;;;;;12.90;5.63;;;15.30;49.80;;;;;;5073687;28;20175;-83
2022/03/25 11:50:43;;;;;;;17.65;7.18;;;15.20;49.80;;;;;;5061216;28;20183;-83
2022/03/25 11:53:11;;;;;;;11.00;5.95;;;14.90;50.70;;;;;;5064793;28;20185;-84
2022/03/25 11:56:03;;;;;;;14.68;6.13;;;14.90;50.10;;;;;;5087599;28;20260;-84
2022/03/25 11:58:48;;;;;;;15.90;6.68;;;15.00;49.50;;;;;;5055473;28;20183;-81
2022/03/25 12:01:19;;;;;;;15.77;6.57;;;15.20;49.20;;;;;;5073818;28;20683;-82
2022/03/25 12:03:49;;;;;;;15.32;6.95;;;15.20;48.70;;;;;;5073966;28;20167;-82
2022/03/25 12:06:16;;;;;;;14.82;6.10;;;15.00;48.40;;;;;;5055136;28;20187;-82
2022/03/25 12:08:56;;;;;;;19.40;6.68;;;15.00;49.30;;;;;;5055895;28;20179;-83
2022/03/25 12:11:47;;;;;;;18.27;6.20;;;15.30;49.10;;;;;;5073254;28;20690;-82
2022/03/25 12:14:13;;;;;;;12.20;6.80;;;15.30;48.70;;;;;;5073620;28;20175;-83
2022/03/25 12:17:07;;;;;;;14.00;7.43;;;15.40;48.90;;;;;;5073629;28;20209;-83
2022/03/25 12:19:39;;;;;;;13.65;6.70;;;15.40;48.70;;;;;;5073279;28;20182;-84
2022/03/25 12:22:20;;;;;;;13.93;5.47;;;15.50;48.60;;;;;;5073970;28;20182;-84
2022/03/25 12:24:47;;;;;;;18.25;6.70;;;15.50;48.70;;;;;;5059314;28;20178;-85
2022/03/25 12:27:12;;;;;;;23.20;6.97;;;15.50;48.00;;;;;;5066949;28;20261;-87
2022/03/25 12:29:40;;;;;;;25.77;6.65;;;15.50;49.80;;;;;;5072808;28;20187;-83
2022/03/25 12:32:08;;;;;;;19.27;6.18;;;15.70;49.20;;;;;;5073571;28;20175;-84
2022/03/25 12:35:01;;;;;;;10.95;5.70;;;16.10;47.70;;;;;;5079696;28;20275;-83
2022/03/25 12:37:37;;;;;;;17.45;8.90;;;16.20;46.50;;;;;;5079914;28;20264;-83
2022/03/25 12:40:11;;;;;;;9.98;5.00;;;16.20;46.70;;;;;;5082886;28;20178;-83
2022/03/25 12:42:37;;;;;;;15.52;6.15;;;16.10;46.30;;;;;;5075620;28;20185;-84
2022/03/25 12:45:03;;;;;;;13.50;5.82;;;16.00;47.10;;;;;;5081392;28;20179;-84
2022/03/25 12:47:31;;;;;;;10.02;4.53;;;16.10;46.50;;;;;;5054653;28;20202;-83
2022/03/25 12:49:58;;;;;;;9.70;4.50;;;16.10;46.50;;;;;;5068523;28;20208;-83
2022/03/25 12:52:24;;;;;;;10.52;5.18;;;16.20;45.80;;;;;;5065278;28;20547;-84